Time;durP1;ratioP1;P1;durP2;ratioP2;P2;SDS_P1;SDS_P2;PMS_P1;PMS_P2;Temp;Humidity;BMP_temperature;BMP_pressure;BME280_temperature;BME280_humidity;BME280_pressure;Samples;Min_cycle;Max_cycle;Signal;HPM_P1;HPM_P2
2021/08/14 00:00:19;;;;;;;11.57;10.32;;;;;;;24.24;63.60;99844.97;5037707;28;20240;-85
2021/08/14 00:02:46;;;;;;;10.60;9.70;;;;;;;24.18;63.45;99837.97;5038896;28;20227;-85
2021/08/14 00:05:14;;;;;;;11.10;10.10;;;;;;;24.17;63.55;99841.03;5055231;28;20224;-85
2021/08/14 00:07:41;;;;;;;11.27;10.30;;;;;;;24.13;63.61;99836.09;5055266;28;20230;-85
2021/08/14 00:10:09;;;;;;;12.05;10.90;;;;;;;24.17;63.74;99841.03;5037559;28;20253;-84
2021/08/14 00:12:36;;;;;;;11.45;10.48;;;;;;;24.10;63.59;99835.91;5037735;28;20225;-85
2021/08/14 00:15:03;;;;;;;11.02;10.15;;;;;;;24.20;63.49;99854.91;5022263;28;20229;-84
2021/08/14 00:17:30;;;;;;;11.70;10.68;;;;;;;24.10;63.78;99825.78;5054851;28;20236;-84
2021/08/14 00:19:57;;;;;;;11.20;10.18;;;;;;;24.12;63.73;99837.22;5038371;28;20233;-84
2021/08/14 00:22:23;;;;;;;11.30;10.30;;;;;;;24.10;63.74;99830.44;5054402;28;20308;-85
2021/08/14 00:24:50;;;;;;;11.80;10.80;;;;;;;24.12;63.56;99820.00;5038434;28;20282;-85
2021/08/14 00:27:17;;;;;;;11.15;10.05;;;;;;;24.20;63.62;99843.94;5054645;28;20290;-85
2021/08/14 00:29:47;;;;;;;12.20;11.17;;;;;;;24.18;63.58;99840.69;5038561;28;20255;-85
2021/08/14 00:32:13;;;;;;;12.02;10.98;;;;;;;24.10;63.80;99827.69;5037728;28;20233;-85
2021/08/14 00:34:40;;;;;;;11.90;10.80;;;;;;;24.12;63.55;99826.25;5021679;28;20264;-85
2021/08/14 00:37:07;;;;;;;11.65;10.65;;;;;;;24.08;63.50;99830.72;5038274;28;20229;-85
2021/08/14 00:39:34;;;;;;;11.98;10.93;;;;;;;24.11;63.57;99827.41;5054263;28;20282;-85
2021/08/14 00:42:01;;;;;;;11.48;10.48;;;;;;;24.09;63.64;99828.81;5054878;28;20261;-85
2021/08/14 00:44:28;;;;;;;11.85;10.85;;;;;;;24.11;63.30;99830.13;5038286;28;20689;-85
2021/08/14 00:46:55;;;;;;;11.13;10.23;;;;;;;24.04;63.50;99818.75;5054246;28;20233;-85
2021/08/14 00:49:23;;;;;;;11.20;9.95;;;;;;;24.01;63.48;99816.66;5054497;28;20229;-85
2021/08/14 00:51:49;;;;;;;11.50;10.40;;;;;;;24.07;63.36;99818.19;5037688;28;20232;-85
2021/08/14 00:54:16;;;;;;;11.45;10.40;;;;;;;23.97;63.49;99821.09;5020966;28;20329;-85
2021/08/14 00:56:43;;;;;;;12.27;11.15;;;;;;;24.01;63.51;99819.38;5055498;28;20305;-85
2021/08/14 00:59:11;;;;;;;11.90;10.85;;;;;;;23.96;63.61;99816.75;5037843;28;20232;-85
2021/08/14 01:01:39;;;;;;;11.90;10.77;;;;;;;23.93;63.60;99814.63;5037910;28;20251;-85
2021/08/14 01:04:08;;;;;;;11.33;10.33;;;;;;;23.92;63.59;99817.66;5053891;28;20225;-84
2021/08/14 01:06:35;;;;;;;11.73;10.75;;;;;;;23.87;63.98;99815.00;5053893;28;20236;-85
2021/08/14 01:09:02;;;;;;;11.63;10.65;;;;;;;23.74;64.13;99796.66;5054197;28;20225;-84
2021/08/14 01:11:29;;;;;;;12.05;11.15;;;;;;;23.78;63.77;99811.34;5021141;28;20249;-84
2021/08/14 01:13:56;;;;;;;12.35;11.25;;;;;;;23.77;64.10;99816.00;5021202;28;20633;-84
2021/08/14 01:16:26;;;;;;;11.63;10.57;;;;;;;23.75;64.25;99814.69;5037413;28;20228;-85
2021/08/14 01:18:53;;;;;;;11.80;10.73;;;;;;;23.74;64.28;99813.88;5037239;28;20247;-85
2021/08/14 01:21:24;;;;;;;12.30;10.88;;;;;;;23.72;64.42;99824.31;5021510;28;20598;-85
2021/08/14 01:23:55;;;;;;;12.18;11.10;;;;;;;23.67;64.48;99819.75;5053846;28;20282;-85
2021/08/14 01:26:23;;;;;;;12.37;10.70;;;;;;;23.56;64.72;99814.78;5037036;28;20227;-85
2021/08/14 01:28:51;;;;;;;11.50;10.40;;;;;;;23.48;65.35;99808.03;5037425;28;20514;-85
2021/08/14 01:31:19;;;;;;;12.27;11.00;;;;;;;23.46;64.97;99806.75;5053959;28;20268;-85
2021/08/14 01:33:46;;;;;;;11.63;10.63;;;;;;;23.44;65.45;99811.66;5053526;28;20313;-85
2021/08/14 01:36:15;;;;;;;11.57;10.50;;;;;;;23.47;65.44;99811.09;5036997;28;20240;-85
2021/08/14 01:38:50;;;;;;;12.60;11.50;;;;;;;23.38;65.19;99810.91;5037261;28;20230;-85
2021/08/14 01:41:17;;;;;;;11.68;10.68;;;;;;;23.33;65.68;99813.75;5036890;28;20232;-85
2021/08/14 01:44:07;;;;;;;12.88;11.68;;;;;;;23.27;66.47;99810.31;5053790;28;20240;-85
2021/08/14 01:46:37;;;;;;;11.93;10.93;;;;;;;23.29;66.33;99804.50;5037087;28;20226;-85
2021/08/14 01:49:04;;;;;;;12.60;11.33;;;;;;;23.28;66.07;99811.13;5037330;28;20640;-85
2021/08/14 01:51:31;;;;;;;12.20;11.20;;;;;;;23.27;66.02;99806.75;5037232;28;20699;-85
2021/08/14 01:54:00;;;;;;;12.37;11.20;;;;;;;23.27;65.83;99801.28;5036994;28;20258;-86
2021/08/14 01:56:27;;;;;;;12.48;11.40;;;;;;;23.30;66.01;99799.84;5053337;28;20256;-85
2021/08/14 01:58:55;;;;;;;12.10;11.07;;;;;;;23.30;65.81;99797.94;5037189;28;20574;-85
2021/08/14 02:01:22;;;;;;;11.65;10.75;;;;;;;23.33;65.74;99811.00;5053634;28;20325;-85
2021/08/14 02:03:50;;;;;;;12.23;11.07;;;;;;;23.27;65.82;99795.81;5053366;28;20226;-84
2021/08/14 02:06:18;;;;;;;12.15;11.15;;;;;;;23.28;66.11;99802.91;5036492;28;20236;-85
2021/08/14 02:08:45;;;;;;;12.02;10.82;;;;;;;23.26;66.20;99805.13;5053302;28;20244;-85
2021/08/14 02:11:17;;;;;;;11.93;10.93;;;;;;;23.27;66.15;99807.56;5037034;28;20227;-85
2021/08/14 02:13:46;;;;;;;11.68;10.65;;;;;;;23.24;66.26;99810.88;5036799;28;20235;-85
2021/08/14 02:16:13;;;;;;;12.60;11.43;;;;;;;23.23;66.27;99805.72;5036297;28;20227;-85
2021/08/14 02:18:40;;;;;;;11.77;10.80;;;;;;;23.27;66.50;99810.31;5053455;28;20231;-85
2021/08/14 02:21:08;;;;;;;12.33;11.33;;;;;;;23.23;66.58;99813.94;5053089;28;20246;-85
2021/08/14 02:23:35;;;;;;;12.37;11.23;;;;;;;23.15;66.26;99798.19;5022050;28;20702;-85
2021/08/14 02:26:03;;;;;;;11.40;10.40;;;;;;;23.30;66.20;99817.06;5040345;28;20245;-85
2021/08/14 02:28:30;;;;;;;12.00;10.77;;;;;;;23.28;66.08;99805.66;5056918;28;20235;-85
2021/08/14 02:30:57;;;;;;;12.05;10.95;;;;;;;23.36;65.86;99799.50;5040707;28;20231;-85
2021/08/14 02:33:24;;;;;;;11.50;10.50;;;;;;;23.39;65.77;99800.78;5040349;28;20236;-85
2021/08/14 02:35:51;;;;;;;12.30;11.30;;;;;;;23.37;65.84;99811.25;5040451;28;20671;-85
2021/08/14 02:38:18;;;;;;;11.40;10.40;;;;;;;23.44;65.60;99811.66;5023524;28;20225;-85
2021/08/14 02:40:48;;;;;;;12.30;11.20;;;;;;;23.47;65.39;99819.31;5056878;28;20251;-85
2021/08/14 02:43:16;;;;;;;11.60;10.53;;;;;;;23.48;65.71;99818.97;5056644;28;20305;-85
2021/08/14 02:45:43;;;;;;;11.57;10.57;;;;;;;23.49;65.81;99826.09;5056687;28;20240;-85
2021/08/14 02:48:10;;;;;;;11.52;10.52;;;;;;;23.50;66.02;99833.19;5039878;28;20236;-85
2021/08/14 02:50:38;;;;;;;12.10;11.00;;;;;;;23.44;66.04;99831.63;5057583;28;20632;-85
2021/08/14 02:53:05;;;;;;;12.50;11.33;;;;;;;23.55;65.32;99844.03;5056624;28;20237;-85
2021/08/14 02:55:32;;;;;;;11.63;10.60;;;;;;;23.52;65.51;99832.84;5040149;28;20232;-86
2021/08/14 02:57:59;;;;;;;12.87;11.40;;;;;;;23.53;66.04;99834.50;5056591;28;20312;-87
2021/08/14 03:00:26;;;;;;;12.60;11.50;;;;;;;23.58;66.57;99840.69;5039831;28;20247;-87
2021/08/14 03:02:53;;;;;;;13.82;11.57;;;;;;;23.54;67.61;99847.06;5056571;28;20616;-87
2021/08/14 03:05:21;;;;;;;13.98;11.40;;;;;;;23.53;67.82;99842.69;5040482;28;20253;-85
2021/08/14 03:07:48;;;;;;;12.67;11.57;;;;;;;23.50;68.48;99838.66;5040083;28;20238;-88
2021/08/14 03:10:14;;;;;;;13.75;12.48;;;;;;;23.54;68.69;99858.00;5039653;28;20230;-87
2021/08/14 03:12:41;;;;;;;13.20;12.10;;;;;;;23.42;69.73;99849.44;5056412;28;20223;-87
2021/08/14 03:15:09;;;;;;;13.40;12.20;;;;;;;23.37;70.16;99853.06;5023320;28;20674;-87
2021/08/14 03:17:36;;;;;;;12.90;11.90;;;;;;;23.29;70.26;99850.97;5039898;28;20282;-87
2021/08/14 03:20:04;;;;;;;13.30;12.10;;;;;;;23.29;69.92;99837.31;5039298;28;20283;-86
2021/08/14 03:22:31;;;;;;;12.73;11.50;;;;;;;23.28;69.47;99833.75;5056342;28;20718;-87
2021/08/14 03:24:58;;;;;;;11.87;10.80;;;;;;;23.07;69.79;99805.16;5056215;28;20588;-86
2021/08/14 03:27:24;;;;;;;13.00;11.87;;;;;;;23.08;69.69;99806.78;5039950;28;20261;-87
2021/08/14 03:29:51;;;;;;;12.67;11.57;;;;;;;23.16;70.15;99838.09;5039683;28;20281;-87
2021/08/14 03:32:19;;;;;;;12.40;11.00;;;;;;;23.19;70.56;99856.59;5055735;28;20244;-87
2021/08/14 03:34:45;;;;;;;12.77;11.47;;;;;;;23.17;70.27;99839.72;5038219;28;20308;-87
2021/08/14 03:37:12;;;;;;;12.10;11.00;;;;;;;23.23;69.96;99828.41;5039453;28;20228;-87
2021/08/14 03:39:39;;;;;;;13.20;12.00;;;;;;;23.27;70.15;99836.81;5055793;28;20227;-87
2021/08/14 03:42:06;;;;;;;13.30;12.20;;;;;;;23.34;69.88;99844.63;5022020;28;20694;-87
2021/08/14 03:44:33;;;;;;;12.90;11.80;;;;;;;23.36;69.79;99856.09;5039254;28;20291;-87
2021/08/14 03:47:00;;;;;;;13.23;11.93;;;;;;;23.23;70.08;99833.06;5056998;28;20759;-87
2021/08/14 03:49:27;;;;;;;15.77;11.93;;;;;;;23.39;70.13;99845.34;5039231;28;20711;-86
2021/08/14 03:51:54;;;;;;;12.73;11.53;;;;;;;23.40;70.14;99848.91;5039432;28;20513;-87
2021/08/14 03:54:20;;;;;;;12.23;10.93;;;;;;;23.45;69.86;99857.88;5038749;28;20239;-87
2021/08/14 03:56:47;;;;;;;12.57;11.37;;;;;;;23.39;69.60;99850.00;5039044;28;20226;-88
2021/08/14 03:59:14;;;;;;;12.47;11.37;;;;;;;23.42;69.33;99868.56;5055559;28;20253;-86
2021/08/14 04:01:41;;;;;;;13.27;11.87;;;;;;;23.38;69.10;99859.31;5022520;28;20232;-86
2021/08/14 04:04:08;;;;;;;12.50;11.50;;;;;;;23.35;69.06;99852.53;5054781;28;20273;-86
2021/08/14 04:06:34;;;;;;;12.33;11.33;;;;;;;23.27;69.31;99861.41;5022370;28;20532;-87
2021/08/14 04:09:01;;;;;;;12.63;11.43;;;;;;;23.33;69.47;99875.81;5039126;28;20319;-86
2021/08/14 04:11:28;;;;;;;12.10;10.97;;;;;;;23.33;69.55;99864.91;5038551;28;20229;-87
2021/08/14 04:13:55;;;;;;;11.10;10.10;;;;;;;23.39;68.92;99863.69;5055112;28;20224;-86
2021/08/14 04:16:21;;;;;;;12.37;11.10;;;;;;;23.34;68.44;99872.78;5038177;28;20567;-86
2021/08/14 04:18:48;;;;;;;13.00;11.73;;;;;;;23.33;68.74;99875.81;5022162;28;20226;-86
2021/08/14 04:21:15;;;;;;;12.57;11.37;;;;;;;23.27;69.19;99881.38;5055028;28;20261;-86
2021/08/14 04:23:42;;;;;;;12.75;11.52;;;;;;;23.26;69.22;99870.72;5038409;28;20279;-86
2021/08/14 04:26:09;;;;;;;12.27;11.17;;;;;;;23.30;69.03;99865.47;5037887;28;20228;-85
2021/08/14 04:28:36;;;;;;;11.50;10.50;;;;;;;23.33;68.91;99856.69;5038426;28;20229;-87
2021/08/14 04:31:02;;;;;;;11.93;10.83;;;;;;;23.35;68.78;99865.38;5054967;28;20280;-86
2021/08/14 04:33:29;;;;;;;12.07;11.07;;;;;;;23.35;68.38;99863.47;5054888;28;20233;-86
2021/08/14 04:35:56;;;;;;;12.90;11.60;;;;;;;23.39;68.40;99869.97;5038210;28;20235;-87
2021/08/14 04:38:23;;;;;;;12.10;11.00;;;;;;;23.42;67.99;99863.91;5038220;28;20228;-85
2021/08/14 04:40:49;;;;;;;11.87;10.67;;;;;;;23.38;68.10;99868.34;5054886;28;20225;-86
2021/08/14 04:43:16;;;;;;;12.07;10.97;;;;;;;23.46;67.66;99870.44;5054627;28;20343;-86
2021/08/14 04:45:43;;;;;;;11.83;10.73;;;;;;;23.50;67.37;99876.94;5037867;28;20290;-86
2021/08/14 04:48:10;;;;;;;12.07;10.97;;;;;;;23.54;67.06;99880.69;5037893;28;20315;-85
2021/08/14 04:50:37;;;;;;;11.55;10.45;;;;;;;23.59;66.63;99864.19;5038107;28;20614;-86
2021/08/14 04:53:03;;;;;;;11.30;10.40;;;;;;;23.70;65.64;99881.25;5054830;28;20286;-86
2021/08/14 04:55:30;;;;;;;12.38;11.23;;;;;;;23.85;65.73;99877.41;5021541;28;20260;-85
2021/08/14 04:57:57;;;;;;;11.32;10.35;;;;;;;24.01;64.91;99871.38;5038120;28;20315;-86
2021/08/14 05:00:24;;;;;;;11.25;10.15;;;;;;;24.21;64.11;99869.41;5021177;28;20239;-86
2021/08/14 05:02:51;;;;;;;10.35;9.40;;;;;;;24.38;63.24;99867.66;5021747;28;20283;-85
2021/08/14 05:05:18;;;;;;;10.65;9.70;;;;;;;24.62;62.54;99880.34;5037968;28;20718;-86
2021/08/14 05:07:45;;;;;;;10.38;9.45;;;;;;;24.76;62.33;99883.88;5037764;28;20229;-85
2021/08/14 05:10:13;;;;;;;10.68;9.68;;;;;;;24.94;61.13;99880.22;5053820;28;20256;-86
2021/08/14 05:12:41;;;;;;;10.73;9.73;;;;;;;25.09;60.51;99873.56;5037905;28;20309;-86
2021/08/14 05:15:08;;;;;;;11.90;10.70;;;;;;;25.29;61.15;99895.03;5054405;28;20230;-85
2021/08/14 05:17:35;;;;;;;10.93;9.93;;;;;;;25.35;60.73;99891.03;5037675;28;20233;-85
2021/08/14 05:20:03;;;;;;;11.38;10.35;;;;;;;25.55;60.26;99896.06;5037244;28;20279;-85
2021/08/14 05:22:30;;;;;;;12.05;10.93;;;;;;;25.66;59.89;99894.69;5053903;28;20578;-85
2021/08/14 05:24:57;;;;;;;12.02;10.85;;;;;;;25.81;59.05;99890.75;5054274;28;20237;-85
2021/08/14 05:27:23;;;;;;;11.50;10.52;;;;;;;25.97;58.85;99900.22;5021236;28;20656;-85
2021/08/14 05:29:50;;;;;;;11.65;10.65;;;;;;;26.03;58.57;99892.66;5037390;28;20231;-85
2021/08/14 05:32:17;;;;;;;10.93;9.77;;;;;;;26.37;57.82;99895.56;5036949;28;20230;-86
2021/08/14 05:34:43;;;;;;;11.45;10.38;;;;;;;26.44;57.22;99889.63;5053896;28;20229;-84
2021/08/14 05:37:10;;;;;;;11.63;10.45;;;;;;;26.56;56.28;99885.13;5053782;28;20229;-86
2021/08/14 05:39:38;;;;;;;11.68;10.43;;;;;;;26.81;55.97;99889.06;5037424;28;20581;-85
2021/08/14 05:42:05;;;;;;;11.55;10.35;;;;;;;27.01;55.53;99888.50;5020386;28;20284;-85
2021/08/14 05:44:32;;;;;;;11.02;9.98;;;;;;;27.11;55.22;99890.09;5037403;28;20295;-85
2021/08/14 05:46:59;;;;;;;10.73;9.73;;;;;;;27.25;55.37;99896.25;5037015;28;20237;-83
2021/08/14 05:49:25;;;;;;;12.18;10.10;;;;;;;27.36;54.39;99885.75;5037221;28;20664;-85
2021/08/14 05:51:52;;;;;;;10.93;10.00;;;;;;;27.58;54.05;99888.31;5037176;28;20258;-85
2021/08/14 05:54:19;;;;;;;11.23;10.23;;;;;;;27.60;54.81;99888.81;5053371;28;20237;-85
2021/08/14 05:56:46;;;;;;;12.05;10.40;;;;;;;27.62;54.09;99883.81;5053634;28;20229;-85
2021/08/14 05:59:13;;;;;;;11.48;10.27;;;;;;;27.89;53.08;99888.94;5040121;28;20673;-85
2021/08/14 06:01:40;;;;;;;10.43;9.45;;;;;;;27.96;52.06;99880.16;5041238;28;20223;-85
2021/08/14 06:04:07;;;;;;;10.60;9.60;;;;;;;28.14;51.55;99887.25;5056981;28;20856;-85
2021/08/14 06:06:33;;;;;;;10.20;9.25;;;;;;;28.13;51.69;99882.09;5040914;28;20285;-85
2021/08/14 06:09:00;;;;;;;11.07;10.13;;;;;;;28.11;51.82;99882.41;5057301;28;20281;-85
2021/08/14 06:11:27;;;;;;;11.00;9.98;;;;;;;28.76;49.98;99900.44;5041052;28;20229;-83
2021/08/14 06:13:54;;;;;;;11.18;10.10;;;;;;;28.94;49.82;99884.56;5057382;28;20224;-85
2021/08/14 06:16:21;;;;;;;9.77;8.95;;;;;;;28.98;50.09;99886.31;5040418;28;20237;-85
2021/08/14 06:18:48;;;;;;;10.90;9.80;;;;;;;29.16;49.14;99898.06;5057550;28;20218;-85
2021/08/14 06:21:14;;;;;;;9.90;8.85;;;;;;;29.27;48.66;99902.81;5040718;28;20332;-84
2021/08/14 06:23:41;;;;;;;10.43;9.43;;;;;;;29.34;48.35;99890.47;5057497;28;20295;-85
2021/08/14 06:26:08;;;;;;;10.25;9.25;;;;;;;29.54;47.93;99903.44;5040253;28;20220;-85
2021/08/14 06:28:35;;;;;;;10.48;9.48;;;;;;;29.65;47.97;99907.41;5040651;28;20290;-85
2021/08/14 06:31:01;;;;;;;10.30;9.30;;;;;;;29.80;48.12;99914.22;5040500;28;20320;-85
2021/08/14 06:33:28;;;;;;;9.95;8.95;;;;;;;29.81;48.10;99908.38;5040571;28;20233;-85
2021/08/14 06:35:55;;;;;;;11.30;9.23;;;;;;;29.97;47.69;99922.38;5040246;28;20276;-84
2021/08/14 06:38:22;;;;;;;11.63;9.27;;;;;;;29.93;48.62;99911.19;5056821;28;20589;-85
2021/08/14 06:40:49;;;;;;;10.35;9.45;;;;;;;29.97;47.93;99905.78;5040203;28;20241;-84
2021/08/14 06:43:16;;;;;;;10.32;9.38;;;;;;;30.14;46.98;99911.91;5040112;28;20233;-85
2021/08/14 06:45:42;;;;;;;10.32;9.20;;;;;;;30.25;46.92;99911.47;5039891;28;20596;-85
2021/08/14 06:48:09;;;;;;;10.18;9.15;;;;;;;30.40;46.95;99908.03;5039939;28;20316;-84
2021/08/14 06:50:36;;;;;;;9.68;8.80;;;;;;;30.50;46.45;99910.38;5056450;28;20659;-84
2021/08/14 06:53:03;;;;;;;10.52;9.32;;;;;;;30.52;46.95;99897.81;5056626;28;20229;-84
2021/08/14 06:55:30;;;;;;;11.07;9.75;;;;;;;30.54;47.18;99903.81;5040078;28;20253;-85
2021/08/14 06:57:56;;;;;;;9.55;8.75;;;;;;;30.74;46.49;99901.28;5056382;28;20708;-85
2021/08/14 07:00:23;;;;;;;9.40;8.63;;;;;;;30.93;45.61;99902.31;5056248;28;20360;-84
2021/08/14 07:02:50;;;;;;;10.40;8.82;;;;;;;30.94;45.28;99903.88;5056663;28;20233;-85
2021/08/14 07:05:23;;;;;;;9.35;8.55;;;;;;;31.09;44.44;99907.13;5040488;28;20526;-85
2021/08/14 07:07:50;;;;;;;9.52;8.48;;;;;;;31.36;44.00;99911.88;5056228;28;20237;-87
2021/08/14 07:10:17;;;;;;;11.07;8.70;;;;;;;31.50;43.83;99914.28;5055444;28;20628;-86
2021/08/14 07:12:44;;;;;;;10.02;9.23;;;;;;;31.60;43.75;99919.31;5057190;28;20227;-87
2021/08/14 07:15:12;;;;;;;10.27;8.40;;;;;;;31.72;43.11;99903.47;5039807;28;20324;-87
2021/08/14 07:17:42;;;;;;;9.80;8.82;;;;;;;31.84;43.45;99916.44;5040058;28;20307;-87
2021/08/14 07:20:09;;;;;;;9.30;8.45;;;;;;;32.02;42.93;99908.59;5039170;28;20226;-86
2021/08/14 07:22:36;;;;;;;9.35;8.55;;;;;;;32.15;42.38;99910.19;5055916;28;20625;-87
2021/08/14 07:25:03;;;;;;;9.70;8.88;;;;;;;32.17;42.69;99905.88;5039313;28;20229;-86
2021/08/14 07:27:30;;;;;;;9.55;8.60;;;;;;;32.27;42.25;99908.13;5039198;28;20230;-87
2021/08/14 07:29:57;;;;;;;9.95;8.50;;;;;;;32.39;42.38;99903.63;5039600;28;20706;-85
2021/08/14 07:32:24;;;;;;;10.60;8.75;;;;;;;32.45;41.52;99904.97;5055298;28;20237;-82
2021/08/14 07:34:52;;;;;;;11.40;8.88;;;;;;;32.61;42.11;99906.59;5039208;28;20325;-84
2021/08/14 07:37:19;;;;;;;9.77;8.77;;;;;;;32.85;41.28;99902.78;5038962;28;20245;-82
2021/08/14 07:39:46;;;;;;;9.23;8.35;;;;;;;32.94;40.88;99899.84;5039127;28;20241;-83
2021/08/14 07:42:13;;;;;;;9.77;8.85;;;;;;;33.10;40.13;99906.13;5037775;28;20233;-83
2021/08/14 07:44:40;;;;;;;8.48;7.57;;;;;;;33.22;39.70;99900.50;5039271;28;20682;-83
2021/08/14 07:47:15;;;;;;;10.30;9.50;;;;;;;33.10;41.15;99909.72;5039154;28;20532;-83
2021/08/14 07:49:42;;;;;;;9.43;8.45;;;;;;;33.06;41.54;99891.38;5055008;28;20528;-85
2021/08/14 07:52:08;;;;;;;9.50;8.18;;;;;;;33.25;41.07;99891.44;5036991;28;20283;-84
2021/08/14 07:54:35;;;;;;;9.35;8.55;;;;;;;32.63;41.83;99889.59;5035383;28;20559;-83
2021/08/14 07:57:05;;;;;;;9.18;8.05;;;;;;;32.83;41.68;99899.59;5038181;28;20222;-83
2021/08/14 07:59:32;;;;;;;9.07;8.27;;;;;;;33.10;41.09;99893.06;5038407;28;20234;-84
2021/08/14 08:02:02;;;;;;;9.77;8.27;;;;;;;33.01;39.99;99891.66;5038184;28;20237;-83
2021/08/14 08:04:30;;;;;;;8.90;8.10;;;;;;;32.94;40.70;99878.44;5037142;28;20256;-83
2021/08/14 08:07:00;;;;;;;9.30;8.35;;;;;;;33.14;41.00;99891.16;5044812;28;20264;-84
2021/08/14 08:09:27;;;;;;;8.25;7.45;;;;;;;33.12;40.80;99889.94;5027573;28;20238;-84
2021/08/14 08:11:54;;;;;;;8.68;7.78;;;;;;;33.18;40.37;99880.97;5038326;28;20229;-83
2021/08/14 08:14:21;;;;;;;9.10;8.15;;;;;;;33.36;40.05;99892.47;5019908;28;20317;-84
2021/08/14 08:16:50;;;;;;;8.65;7.85;;;;;;;33.51;39.09;99893.53;5035662;28;20221;-83
2021/08/14 08:19:17;;;;;;;9.75;8.50;;;;;;;33.73;39.24;99898.38;5037793;28;20657;-84
2021/08/14 08:21:44;;;;;;;10.30;7.40;;;;;;;33.83;39.00;99896.97;5028459;28;20226;-83
2021/08/14 08:24:14;;;;;;;10.65;7.80;;;;;;;33.97;38.67;99903.59;5053895;28;20257;-83
2021/08/14 08:26:41;;;;;;;9.05;7.90;;;;;;;34.14;38.42;99888.41;5037488;28;20680;-84
2021/08/14 08:29:11;;;;;;;9.15;7.72;;;;;;;33.83;38.71;99885.88;5037706;28;20234;-84
2021/08/14 08:31:44;;;;;;;11.15;8.07;;;;;;;33.33;40.00;99893.19;5037426;28;20229;-83
2021/08/14 08:34:11;;;;;;;9.93;8.13;;;;;;;33.27;39.84;99883.53;5037048;28;20225;-83
2021/08/14 08:36:38;;;;;;;8.93;8.00;;;;;;;33.17;40.38;99893.25;5053649;28;20256;-86
2021/08/14 08:39:04;;;;;;;9.18;8.30;;;;;;;33.30;39.68;99877.25;5037613;28;20527;-86
2021/08/14 08:41:32;;;;;;;8.45;7.57;;;;;;;33.88;38.53;99874.41;5037255;28;20652;-86
2021/08/14 08:43:59;;;;;;;9.60;7.75;;;;;;;34.61;37.79;99881.66;5037411;28;20225;-86
2021/08/14 08:46:31;;;;;;;9.32;8.15;;;;;;;35.09;37.50;99880.75;5053195;28;20616;-87
2021/08/14 08:48:59;;;;;;;8.95;8.00;;;;;;;35.05;36.88;99877.13;5053487;28;20222;-86
2021/08/14 08:51:30;;;;;;;10.15;8.05;;;;;;;35.25;37.45;99875.84;5053986;28;20232;-85
2021/08/14 08:53:57;;;;;;;8.68;7.82;;;;;;;34.94;37.84;99878.19;5037026;28;20233;-86
2021/08/14 08:56:24;;;;;;;11.27;8.43;;;;;;;34.63;37.55;99866.16;5036739;28;20593;-86
2021/08/14 08:58:51;;;;;;;9.25;8.10;;;;;;;35.08;36.17;99876.41;5037112;28;20699;-86
2021/08/14 09:01:18;;;;;;;8.93;7.97;;;;;;;35.87;35.53;99867.81;5036859;28;20703;-86
2021/08/14 09:03:46;;;;;;;8.93;7.88;;;;;;;36.56;35.11;99863.22;5037201;28;20236;-83
2021/08/14 09:06:13;;;;;;;8.88;7.97;;;;;;;36.91;34.23;99870.25;5038231;28;20229;-83
2021/08/14 09:08:40;;;;;;;7.97;7.28;;;;;;;37.07;34.08;99870.75;5033696;28;20225;-84
2021/08/14 09:11:10;;;;;;;8.23;7.40;;;;;;;35.82;36.35;99873.72;5049028;28;20230;-84
2021/08/14 09:13:41;;;;;;;8.50;7.70;;;;;;;35.42;36.97;99866.09;5030445;28;20230;-84
2021/08/14 09:16:21;;;;;;;10.50;8.02;;;;;;;35.54;36.58;99854.69;5037132;28;20249;-83
2021/08/14 09:18:56;;;;;;;9.02;8.10;;;;;;;34.58;39.80;99857.34;5037255;28;20236;-84
2021/08/14 09:21:31;;;;;;;9.43;8.05;;;;;;;34.98;39.25;99856.75;5036725;28;20663;-83
2021/08/14 09:24:04;;;;;;;9.15;8.27;;;;;;;35.01;38.66;99858.78;5032989;28;20234;-83
2021/08/14 09:26:34;;;;;;;9.50;8.48;;;;;;;35.22;38.92;99853.53;5032415;28;20560;-84
2021/08/14 09:29:03;;;;;;;11.07;8.25;;;;;;;35.13;38.58;99858.56;5033409;28;20629;-84
2021/08/14 09:31:47;;;;;;;10.20;7.60;;;;;;;35.02;37.62;99844.50;5033285;28;20697;-84
2021/08/14 09:34:24;;;;;;;9.88;8.38;;;;;;;34.98;38.27;99852.00;5032625;28;20229;-83
2021/08/14 09:37:03;;;;;;;8.90;7.35;;;;;;;34.96;38.45;99861.88;5035002;28;20300;-84
2021/08/14 09:39:34;;;;;;;10.82;8.30;;;;;;;34.82;38.92;99843.81;5032655;28;20221;-84
2021/08/14 09:42:06;;;;;;;9.20;7.90;;;;;;;34.75;38.92;99840.94;5008250;28;20229;-83
2021/08/14 09:44:35;;;;;;;12.25;8.10;;;;;;;35.15;39.28;99850.59;5033014;28;20236;-84
2021/08/14 09:47:10;;;;;;;11.20;7.80;;;;;;;35.00;39.56;99846.84;5016987;28;20309;-84
2021/08/14 09:49:55;;;;;;;8.85;7.95;;;;;;;34.69;39.95;99847.22;5049334;28;20210;-84
2021/08/14 09:52:24;;;;;;;8.55;7.68;;;;;;;34.77;39.24;99835.78;5032681;28;20558;-84
2021/08/14 09:54:54;;;;;;;10.43;7.97;;;;;;;34.49;39.56;99829.78;5017248;28;20641;-84
2021/08/14 09:57:33;;;;;;;9.52;8.32;;;;;;;34.92;38.87;99826.47;5041285;28;20279;-84
2021/08/14 10:00:06;;;;;;;9.13;8.23;;;;;;;35.14;39.34;99837.88;5048555;28;20240;-84
2021/08/14 10:02:37;;;;;;;9.82;8.07;;;;;;;35.20;38.26;99825.25;5053527;28;20248;-83
2021/08/14 10:05:05;;;;;;;8.85;7.95;;;;;;;34.92;38.16;99832.03;5036018;28;20298;-83
2021/08/14 10:07:33;;;;;;;8.57;7.57;;;;;;;34.76;37.97;99825.84;5032935;28;20276;-84
2021/08/14 10:10:18;;;;;;;14.68;7.85;;;;;;;34.97;38.77;99828.13;5032665;28;20234;-84
2021/08/14 10:12:46;;;;;;;8.50;7.65;;;;;;;35.71;36.82;99822.66;5040953;28;20229;-84
2021/08/14 10:15:13;;;;;;;10.82;7.80;;;;;;;35.22;37.58;99811.75;5019934;28;20230;-84
2021/08/14 10:17:40;;;;;;;8.75;7.85;;;;;;;35.76;36.96;99805.56;5019523;28;20241;-83
2021/08/14 10:20:08;;;;;;;9.77;7.72;;;;;;;36.21;35.07;99811.97;5029358;28;20312;-84
2021/08/14 10:22:35;;;;;;;9.15;7.88;;;;;;;36.25;34.67;99799.66;5034756;28;20260;-83
2021/08/14 10:25:02;;;;;;;9.43;7.75;;;;;;;36.05;35.03;99801.06;5036435;28;20312;-84
2021/08/14 10:27:49;;;;;;;9.75;7.68;;;;;;;35.90;36.36;99786.19;5052828;28;20240;-84
2021/08/14 10:30:34;;;;;;;7.80;7.10;;;;;;;36.37;35.18;99788.16;5024356;28;20238;-84
2021/08/14 10:33:00;;;;;;;8.55;7.72;;;;;;;36.23;35.22;99776.91;5031294;28;20292;-85
2021/08/14 10:35:27;;;;;;;8.95;7.47;;;;;;;36.72;35.05;99795.19;5031215;28;20270;-85
2021/08/14 10:37:54;;;;;;;9.25;8.13;;;;;;;36.56;34.16;99787.88;5034060;28;20329;-84
2021/08/14 10:40:21;;;;;;;10.00;7.97;;;;;;;36.36;34.21;99778.19;5016513;28;20245;-85
2021/08/14 10:42:52;;;;;;;8.90;7.03;;;;;;;36.63;34.77;99782.34;5032512;28;20230;-85
2021/08/14 10:45:31;;;;;;;9.35;7.82;;;;;;;36.70;33.65;99773.25;5035534;28;20654;-85
2021/08/14 10:48:05;;;;;;;8.75;7.85;;;;;;;36.78;33.24;99783.22;5036666;28;20281;-85
2021/08/14 10:50:32;;;;;;;10.32;7.68;;;;;;;36.65;32.72;99778.38;5020609;28;20232;-85
2021/08/14 10:53:11;;;;;;;10.90;8.00;;;;;;;36.66;33.47;99780.00;5036326;28;20261;-85
2021/08/14 10:55:43;;;;;;;8.75;7.78;;;;;;;36.81;32.95;99778.88;5035961;28;20229;-85
2021/08/14 10:58:23;;;;;;;9.40;7.63;;;;;;;36.92;33.58;99774.13;5019526;28;20352;-85
2021/08/14 11:01:03;;;;;;;8.93;7.68;;;;;;;37.05;33.09;99775.34;5036436;28;20225;-85
2021/08/14 11:03:32;;;;;;;9.25;7.80;;;;;;;36.66;33.94;99766.84;5051190;28;20283;-84
2021/08/14 11:06:28;;;;;;;10.63;7.50;;;;;;;37.17;33.21;99763.88;5023415;28;20249;-85
2021/08/14 11:09:17;;;;;;;8.73;7.80;;;;;;;37.30;33.23;99764.28;5055888;28;20229;-85
2021/08/14 11:11:56;;;;;;;11.15;7.32;;;;;;;37.72;31.65;99747.63;5055989;28;20221;-85
2021/08/14 11:14:41;;;;;;;10.57;7.10;;;;;;;38.12;30.73;99748.44;5055501;28;20248;-85
2021/08/14 11:17:10;;;;;;;8.48;6.80;;;;;;;38.37;30.39;99751.16;5055995;28;20312;-85
2021/08/14 11:19:55;;;;;;;9.00;7.28;;;;;;;38.87;29.06;99749.84;5055845;28;20698;-85
2021/08/14 11:22:32;;;;;;;8.80;7.40;;;;;;;39.01;29.71;99746.19;5038592;28;20229;-84
2021/08/14 11:25:02;;;;;;;8.55;7.25;;;;;;;39.35;28.92;99738.00;5039433;28;20660;-85
2021/08/14 11:27:32;;;;;;;9.40;7.32;;;;;;;39.85;28.37;99741.25;5071857;28;20743;-85
2021/08/14 11:30:00;;;;;;;9.20;7.00;;;;;;;40.27;27.63;99731.66;5038842;28;20249;-85